Temps Etape 1 et Heures de D├ępart Etape 2  
 
HeureConducteurAsaCoéquipierVoitureGroupeClassePénaTempsEcarts
08h2010LECKI LaurentVINS MÂCONLAMUR JérémySKODA Fabia R5RR5 0:12:31,0 
08h218MORIN MichelLA CHATREMORIN CaroleVOLKSWAGEN Polo R5RR5 0:12:36,3000:05,30
08h2211ROUSSEL Frédéric59 HAUTMONTFAUCHER HervéCITROËN DS3 R5RR5 0:12:52,000:21,0
08h2346GODARD LudovicPAYS DE MONTBELIARDCHATELAIN MickaëlRENAULT Clio RagnottiF200014 0:13:10,3000:39,30
08h246SANDONA JulienJURAFOURNIER GéraldSUBARU Impreza StiFA8 0:13:14,3000:43,30
08h2547JALOUZOT PhilippeAVALLON AUTO SPORTMARTIN PatrickFORD Puma Kit CarFA6K 0:13:14,9000:43,90
08h269BOZEC YannMELUNTABOURET LaurentHUYNDAI i20 R5RR5 0:13:20,5000:49,50
08h2749CHARBONNIER AlexisVILLEMOMBLEFAIVRE EmelineRENAULT Clio Super 1600FA6K 0:13:34,1001:03,10
08h2830MOSSIERE LionelOCEANEMILLOT FlorianSUBARU ImprezaFN4 0:13:38,5001:07,50
08h2945TOITOT NicolasAVALLON AUTO SPORTTOITOT TomRENAULT 5 GT TurboF200014 0:13:40,9001:09,90
08h3070AUDET DimitriVINS MÂCONAUDET PatrickPEUGEOT 106 S16F200013 0:13:42,5001:11,50
08h3155CARTIER VictorVINS MÂCONCRAEN FabienFORD Fiesta R2RR2 0:13:44,5001:13,50
08h323COURDIER DavidJURACHABOD LoïcPEUGEOT 206 RcF200014 0:13:47,5001:16,50
08h3362POIRIER ClémentVILLEMOMBLEBARBIER GhislainRENAULT Clio RagnottiFN3 0:13:47,8001:16,80
08h3454JACQUET AlexandreJURAJACQUET AnthonyPEUGEOT 208 VTIRR2 0:13:50,1001:19,10
08h355METRAL VincentMONT-BLANCMETRAL MichelRENAULT Clio WilliamsFN3 0:13:56,3001:25,30
08h3695JOVIN FranckAVALLON AUTO SPORTJOVIN DanyCITROËN Saxo VTSF200012 0:13:58,4001:27,40
08h3773COLLADO DamienAVALLON AUTO SPORTCHAPEL JoachimCITROËN Saxo VTSFA6 0:14:00,6001:29,60
08h3858CACHOD SébastienDE L'ENCLOSJACQUES LaurentRENAULT Clio RSFA7 0:14:03,001:32,0
08h3953GAY AlainJURABOURGES ChristopheCITROËN C2 R2RR2 0:14:08,4001:37,40
08h4059ROUSSELET AdrienJURACOURTET JofreyPEUGEOT 206 RcFA7 0:14:09,5001:38,50
08h4179CAMPOS JérémiVINS MÂCONBOULEY JenniferCITROËN Saxo VTSFN2 0:14:10,5001:39,50
08h4223THOMAS GuillaumeYONNETHOMAS BernardPEUGEOT 207 RcRR3 0:14:10,7001:39,70
08h4322DARIN SébastienAVALLON AUTO SPORTDARIN StéphanieCITROËN DS3 R3RR3 0:14:18,4001:47,40
08h447DA SILVA EnriqueAVALLON AUTO SPORTDA SILVA MickaëlCITROËN Saxo VTSF200013 0:14:19,4001:48,40
08h4557FARGE PhilippeNIVERNAIS-MORVANCHAMPLIAU MartialRENAULT Clio WilliamsFA7 0:14:20,8001:49,80
08h4661COURDIER AlexisJURALÉPEULE AmélieRENAULT Clio RSFN3 0:14:22,3001:51,30
08h4780LAMBRECHTS ValentinJURAMARGUET MarinaCITROËN Saxo VTSFN2 0:14:22,4001:51,40
08h4842SOUPAULT AllanAVALLON AUTO SPORTTIENDA JohannaRENAULT Clio RSF200014 0:14:27,6001:56,60
08h4944DECREMERE JonathanAVALLON AUTO SPORTMAGDELENAT LaurentPEUGEOT 205 GTIF200014 0:14:32,6002:01,60
08h5021DARIN EricAVALLON AUTO SPORTGULAT DamienCITROËN DS3 R3RR3 0:14:33,2002:02,20
08h5160DICHAMP AnthonySEQUANIEPARENT TiphaineRENAULT Clio RSFA7 0:14:33,4002:02,40
08h5277JULLIEN Jean-PhilippeAVALLON AUTO SPORTJULLIEN MaximePEUGEOT 205 RallyeFA5 0:14:33,9002:02,90
08h5312JUZWENKO JérômeAVALLON AUTO SPORTFRANCESCHINI NoémieSUBARU Impreza StiFA8 0:14:36,2002:05,20
08h5424LESCAIL RodrigueFRANCHE-COMTÉFRIDBLATT ServanePEUGEOT 207 RcRR3 0:14:36,3002:05,30
08h5567ROLIN SébastienAVALLON AUTO SPORTDUPUIS TeddyCITROËN Saxo VTSF200013 0:14:37,6002:06,60
08h5631BAILLY FrédéricAVALLON AUTO SPORTBEZOUT Jean-LucRENAULT 5 GT TurboFN4 0:14:38,3002:07,30
08h5751DUBOIS AlexandreAVALLON AUTO SPORTGALLET ArthurPEUGEOT 208 VTIRR2 0:14:39,4002:08,40
08h581SUREAU SébastienAVALLON AUTO SPORTCHAVENAY CédricRENAULT Clio Super 1600FA6K 0:14:43,8002:12,80
08h5983CHARDIN JérômeAVALLON AUTO SPORTCHARDIN DelphineHONDA Civic Type RFN2 0:14:48,4002:17,40
09h0016MARTIN LucasLOIRETVANDOIT OlivierPEUGEOT 207 RcFA8 0:14:51,4002:20,40
09h0148GALLOT FrédéricVEXINGALLOT AstridPEUGEOT 206 Super 1600FA6K 0:14:53,6002:22,60
09h0215PLINGUIER ChristopheAVALLON AUTO SPORTCALLE LaurentSUBARU ImprezaFA8 0:14:54,4002:23,40
09h0382FOURDIN AurélienAVALLON AUTO SPORTGAGNARD TristanPEUGEOT 106 S16FN2 0:14:58,4002:27,40
09h0452CLECH LudovicYONNEJAILLARD FlorianCITROËN C2 R2RR2 0:15:01,8002:30,80
09h0593MILLOT JonathanAVALLON AUTO SPORTBISSON FrédéricPEUGEOT 106 XSIF200012 0:15:04,4002:33,40
09h062LAMARCHE DavidJURAGIRARDET BenoîtPEUGEOT 106 XSIFN1 0:15:04,7002:33,70
09h0726DUCROT SébastienAVALLON AUTO SPORTCHARIOT RenéPEUGEOT 207 RcRR3 0:15:04,7002:33,70
09h0875DELAPORTE AxelMORVANDELAPORTE OlivierPEUGEOT 106 XSIFA5 0:15:10,002:39,0
09h09102GUISEPPONE ArnaudBASTIAISEPETIT ArnaudPEUGEOT 206 XSFA6K 0:15:11,4002:40,40
09h104BEAURIN SébastienAVALLON AUTO SPORTVIEILLARD AuroreCITROËN Saxo VTSFN2 0:15:16,2002:45,20
09h1132DEMORE GéraldAVALLON AUTO SPORTMILLOT LaurentPEUGEOT 205 GTIF200014 0:15:17,002:46,0
09h1219MORICARD GaëtanAVALLON AUTO SPORTPOUSSIN AlexPEUGEOT 207 RcFA8 0:15:19,6002:48,60
09h1391JEAN ArthurNIVERNAIS-MORVANFRANCESCHINI GaëllePEUGEOT 205 RallyeF200012 0:15:20,2002:49,20
09h14100UNDREINER DamienVINS MÂCONRAILLARD ThomasPEUGEOT 205 RallyeFN1 0:15:27,8002:56,80
09h1574FOURNET BaptisteMORVANPEA FlorentCITROËN AX GTIFA5 0:15:28,5002:57,50
09h1694LAFARGE JérémyVINS MÂCONDUCHAINE EloïsePEUGEOT 106 RallyeF200012 0:15:30,7002:59,70
09h1714PLISSON DanielAVALLON AUTO SPORTLAMBERT LéonieB.M.W. 325iFA8 0:15:34,8003:03,80
09h1834SELLIER JohanAVALLON AUTO SPORTRATO JoffreyVOLKSWAGEN Golf GTIF200014 0:15:34,8003:03,80
09h1935PELLICIOLI BradyAVALLON AUTO SPORTBOUVET JeffersonB.M.W. 320iF200014 0:15:36,8003:05,80
09h2097LEROY FabienAVALLON AUTO SPORTDE LA GRAVIERE AdrienPEUGEOT 106 XSIFN1 0:15:37,6003:06,60
09h21101GATEAU DidierYONNEPASCUAL MatthieuCITROËN AX SportFN1 0:15:38,9003:07,90
09h2238MILLOT OlivierAVALLON AUTO SPORTCHANVIN JérémieRENAULT 5 GT TurboF200014 0:15:39,1003:08,10
09h2337LEROY RémiAVALLON AUTO SPORTLEROY TiphainePEUGEOT 205 GTIF200014 0:15:42,5003:11,50
09h2463FROMENT AxelBERRYFROMENT AuréliaRENAULT Clio RSFN3 0:15:51,5003:20,50
09h2518BEAUPOIL SébastienDIJON-CÔTE D'ORBEAUPOIL BenjaminPEUGEOT 207 RcFA8 0:15:57,1003:26,10
09h2688CLOIX DamienAVALLON AUTO SPORTSERGEANT JérémyHONDA Civic Type RFN2 0:15:59,6003:28,60
09h2728CAPLAN AnthonyBERRYCHANDELIER AnthonyMITSUBISHI Lancer Evo9FN4 0:16:07,003:36,0
09h2892SAVRY LoïckAVALLON AUTO SPORTCOLOMBIES OrlanePEUGEOT 106 XSIF200012 0:16:13,7003:42,70
09h2920MEUNIER AlexandreBERRYBAPTENDIER AlizéeCITROËN DS3 R3RR3 0:16:21,8003:50,80
09h3065ROBERT MélanieAVALLON AUTO SPORTROBERT AurélienPEUGEOT 205 GTIF200013 0:16:32,004:01,0
09h3196BONNOUVRIER AlexisMORVANVIVIEN HéloïsePEUGEOT 106 RallyeFNN2S 0:16:33,7004:02,70
09h3298PAPIN NicolasAVALLON AUTO SPORTPAPIN JérômePEUGEOT 106 RallyeFN1 0:16:39,9004:08,90
09h3317MILLOT PascalAVALLON AUTO SPORTMILLOT SullivanPEUGEOT 207 RcFA8 0:16:45,6004:14,60
09h3456PLINGUIER AlineAVALLON AUTO SPORTJARZAGUET SophiePEUGEOT 206 GtFA7 0:16:53,3004:22,30
09h3564DE LAROCHEFOUCAULD AntoineMELUNDONY MarionPEUGEOT 206 RcFN3 0:16:54,6004:23,60
09h3678BOURNON QuentinAVALLON AUTO SPORTBOURNON ClémentPEUGEOT 205 RallyeFA5 0:17:00,2004:29,20
09h3785METRAL FabienSAVOIECHOUDEY Marie-JoPEUGEOT 106 S16FN2 0:17:06,3004:35,30
09h3886SABAT JoeffreyFRANCHE-COMTÉLANDMANN YoanPEUGEOT 106 S16FN2 0:17:07,8004:36,80
09h3989GIRARD LucasAVALLON AUTO SPORTGIRARD PerrinePEUGEOT 106 S16FN2 0:17:17,4004:46,40
09h4087BOUILLON JulienBERRYLOISEAU NoéCITROËN Saxo VTSFN2 0:17:39,2005:08,20
09h4139GAWEL GaëtanAUBOISEVANDEWALLE ThéoVOLKSWAGEN Golf GTIF200014 0:17:39,5005:08,50
09h4266BONIN AurélienAVALLON AUTO SPORTBONIN EricCITROËN Saxo VTSF200013 0:17:46,9005:15,90
09h4336GOGUE AndréDIJON-CÔTE D'ORSALOMON FrançoiseB.M.W. 318 iSF200014 0:17:49,1005:18,10
09h4471BAILLY EricYONNEWARNET JulesHONDA Civic Type RFA6 0:17:54,5005:23,50
09h4590VOIRIN ValentinAVALLON AUTO SPORTVOIRIN VincentCITROËN Saxo VTSF200012 0:21:21,4008:50,40